sensor_id;sensor_type;location;lat;lon;timestamp;P1;durP1;ratioP1;P2;durP2;ratioP2
75456;SDS011;64036;48.266;14.192;2023-02-28T00:00:36;7.90;;;4.90;;
75456;SDS011;64036;48.266;14.192;2023-02-28T00:03:02;9.80;;;5.70;;
75456;SDS011;64036;48.266;14.192;2023-02-28T00:05:28;8.60;;;4.60;;
75456;SDS011;64036;48.266;14.192;2023-02-28T00:07:55;8.00;;;3.90;;
75456;SDS011;64036;48.266;14.192;2023-02-28T00:10:23;9.10;;;4.30;;
75456;SDS011;64036;48.266;14.192;2023-02-28T00:12:52;8.70;;;4.80;;
75456;SDS011;64036;48.266;14.192;2023-02-28T00:15:22;7.70;;;4.20;;
75456;SDS011;64036;48.266;14.192;2023-02-28T00:17:49;9.00;;;4.80;;
75456;SDS011;64036;48.266;14.192;2023-02-28T00:20:15;7.30;;;3.90;;
75456;SDS011;64036;48.266;14.192;2023-02-28T00:22:44;8.70;;;4.70;;
75456;SDS011;64036;48.266;14.192;2023-02-28T00:25:13;8.50;;;4.80;;
75456;SDS011;64036;48.266;14.192;2023-02-28T00:27:40;8.80;;;5.00;;
75456;SDS011;64036;48.266;14.192;2023-02-28T00:30:10;7.90;;;4.70;;
75456;SDS011;64036;48.266;14.192;2023-02-28T00:32:38;10.10;;;5.20;;
75456;SDS011;64036;48.266;14.192;2023-02-28T00:35:04;9.10;;;5.00;;
75456;SDS011;64036;48.266;14.192;2023-02-28T00:37:31;9.60;;;5.70;;
75456;SDS011;64036;48.266;14.192;2023-02-28T00:39:57;10.50;;;5.10;;
75456;SDS011;64036;48.266;14.192;2023-02-28T00:42:24;7.20;;;4.20;;
75456;SDS011;64036;48.266;14.192;2023-02-28T00:44:50;8.60;;;4.70;;
75456;SDS011;64036;48.266;14.192;2023-02-28T00:47:15;9.80;;;5.30;;
75456;SDS011;64036;48.266;14.192;2023-02-28T00:49:41;8.70;;;5.00;;
75456;SDS011;64036;48.266;14.192;2023-02-28T00:52:07;11.10;;;5.80;;
75456;SDS011;64036;48.266;14.192;2023-02-28T00:54:33;9.40;;;5.10;;
75456;SDS011;64036;48.266;14.192;2023-02-28T00:56:59;8.50;;;4.70;;
75456;SDS011;64036;48.266;14.192;2023-02-28T00:59:25;11.10;;;5.70;;
75456;SDS011;64036;48.266;14.192;2023-02-28T01:01:51;10.90;;;5.50;;
75456;SDS011;64036;48.266;14.192;2023-02-28T01:04:17;10.40;;;4.90;;
75456;SDS011;64036;48.266;14.192;2023-02-28T01:06:43;10.30;;;5.90;;
75456;SDS011;64036;48.266;14.192;2023-02-28T01:09:09;12.30;;;6.20;;
75456;SDS011;64036;48.266;14.192;2023-02-28T01:11:35;10.30;;;4.40;;
75456;SDS011;64036;48.266;14.192;2023-02-28T01:14:02;8.40;;;4.70;;
75456;SDS011;64036;48.266;14.192;2023-02-28T01:16:29;10.40;;;5.40;;
75456;SDS011;64036;48.266;14.192;2023-02-28T01:18:55;9.70;;;6.00;;
75456;SDS011;64036;48.266;14.192;2023-02-28T01:21:22;9.20;;;5.40;;
75456;SDS011;64036;48.266;14.192;2023-02-28T01:23:48;9.10;;;5.10;;
75456;SDS011;64036;48.266;14.192;2023-02-28T01:26:18;9.00;;;5.30;;
75456;SDS011;64036;48.266;14.192;2023-02-28T01:28:46;9.50;;;5.00;;
75456;SDS011;64036;48.266;14.192;2023-02-28T01:31:12;8.70;;;5.00;;
75456;SDS011;64036;48.266;14.192;2023-02-28T01:33:39;9.40;;;5.40;;
75456;SDS011;64036;48.266;14.192;2023-02-28T01:36:08;11.20;;;4.80;;
75456;SDS011;64036;48.266;14.192;2023-02-28T01:38:36;7.40;;;4.80;;
75456;SDS011;64036;48.266;14.192;2023-02-28T01:47:22;7.60;;;3.90;;
75456;SDS011;64036;48.266;14.192;2023-02-28T01:49:51;10.60;;;4.50;;
75456;SDS011;64036;48.266;14.192;2023-02-28T01:52:18;9.60;;;5.00;;
75456;SDS011;64036;48.266;14.192;2023-02-28T01:54:52;8.80;;;4.60;;
75456;SDS011;64036;48.266;14.192;2023-02-28T01:57:24;9.30;;;5.30;;
75456;SDS011;64036;48.266;14.192;2023-02-28T02:00:00;7.30;;;4.20;;
75456;SDS011;64036;48.266;14.192;2023-02-28T02:02:36;9.20;;;4.60;;
75456;SDS011;64036;48.266;14.192;2023-02-28T02:05:10;11.10;;;5.20;;
75456;SDS011;64036;48.266;14.192;2023-02-28T02:07:47;12.20;;;5.00;;
75456;SDS011;64036;48.266;14.192;2023-02-28T02:10:19;10.20;;;5.30;;
75456;SDS011;64036;48.266;14.192;2023-02-28T02:18:59;6.80;;;3.70;;
75456;SDS011;64036;48.266;14.192;2023-02-28T02:21:47;9.60;;;4.60;;
75456;SDS011;64036;48.266;14.192;2023-02-28T02:27:58;10.00;;;4.60;;
75456;SDS011;64036;48.266;14.192;2023-02-28T02:39:50;11.00;;;5.40;;
75456;SDS011;64036;48.266;14.192;2023-02-28T02:42:44;10.40;;;4.50;;
75456;SDS011;64036;48.266;14.192;2023-02-28T02:45:41;11.60;;;5.40;;
75456;SDS011;64036;48.266;14.192;2023-02-28T02:48:19;10.60;;;5.20;;
75456;SDS011;64036;48.266;14.192;2023-02-28T02:50:50;8.70;;;4.80;;
75456;SDS011;64036;48.266;14.192;2023-02-28T02:53:22;11.30;;;4.40;;
75456;SDS011;64036;48.266;14.192;2023-02-28T02:55:54;9.50;;;4.50;;
75456;SDS011;64036;48.266;14.192;2023-02-28T02:58:24;11.80;;;5.70;;
75456;SDS011;64036;48.266;14.192;2023-02-28T03:00:58;8.90;;;5.00;;
75456;SDS011;64036;48.266;14.192;2023-02-28T03:03:26;10.70;;;5.60;;
75456;SDS011;64036;48.266;14.192;2023-02-28T03:05:57;10.20;;;5.40;;
75456;SDS011;64036;48.266;14.192;2023-02-28T03:08:25;8.60;;;5.00;;
75456;SDS011;64036;48.266;14.192;2023-02-28T03:10:57;7.50;;;3.90;;
75456;SDS011;64036;48.266;14.192;2023-02-28T03:13:42;8.50;;;4.50;;
75456;SDS011;64036;48.266;14.192;2023-02-28T03:16:28;11.30;;;5.50;;
75456;SDS011;64036;48.266;14.192;2023-02-28T03:19:26;9.90;;;5.10;;
75456;SDS011;64036;48.266;14.192;2023-02-28T03:28:08;10.20;;;4.60;;
75456;SDS011;64036;48.266;14.192;2023-02-28T03:30:41;7.20;;;4.30;;
75456;SDS011;64036;48.266;14.192;2023-02-28T03:33:28;10.90;;;5.10;;
75456;SDS011;64036;48.266;14.192;2023-02-28T03:36:12;11.10;;;5.10;;
75456;SDS011;64036;48.266;14.192;2023-02-28T03:41:22;8.60;;;4.20;;
75456;SDS011;64036;48.266;14.192;2023-02-28T03:43:59;7.20;;;3.10;;
75456;SDS011;64036;48.266;14.192;2023-02-28T03:50:19;11.30;;;4.70;;
75456;SDS011;64036;48.266;14.192;2023-02-28T03:53:18;7.80;;;4.20;;
75456;SDS011;64036;48.266;14.192;2023-02-28T03:55:49;9.40;;;4.50;;
75456;SDS011;64036;48.266;14.192;2023-02-28T03:58:31;10.00;;;4.30;;
75456;SDS011;64036;48.266;14.192;2023-02-28T04:01:08;9.10;;;4.20;;
75456;SDS011;64036;48.266;14.192;2023-02-28T04:03:38;8.70;;;5.10;;
75456;SDS011;64036;48.266;14.192;2023-02-28T04:06:06;8.20;;;4.50;;
75456;SDS011;64036;48.266;14.192;2023-02-28T04:08:33;11.30;;;5.10;;
75456;SDS011;64036;48.266;14.192;2023-02-28T04:11:08;8.70;;;4.40;;
75456;SDS011;64036;48.266;14.192;2023-02-28T04:13:39;7.00;;;4.20;;
75456;SDS011;64036;48.266;14.192;2023-02-28T04:16:07;10.60;;;5.60;;
75456;SDS011;64036;48.266;14.192;2023-02-28T04:18:40;8.20;;;5.10;;
75456;SDS011;64036;48.266;14.192;2023-02-28T04:21:09;9.20;;;5.30;;
75456;SDS011;64036;48.266;14.192;2023-02-28T04:23:35;6.70;;;4.00;;
75456;SDS011;64036;48.266;14.192;2023-02-28T04:26:04;8.90;;;4.70;;
75456;SDS011;64036;48.266;14.192;2023-02-28T04:28:31;10.00;;;5.20;;
75456;SDS011;64036;48.266;14.192;2023-02-28T04:31:00;8.70;;;4.50;;
75456;SDS011;64036;48.266;14.192;2023-02-28T04:33:28;10.50;;;5.90;;
75456;SDS011;64036;48.266;14.192;2023-02-28T04:36:02;10.30;;;5.00;;
75456;SDS011;64036;48.266;14.192;2023-02-28T04:38:33;9.40;;;5.20;;
75456;SDS011;64036;48.266;14.192;2023-02-28T04:41:00;12.40;;;4.40;;
75456;SDS011;64036;48.266;14.192;2023-02-28T04:43:30;11.90;;;4.60;;
75456;SDS011;64036;48.266;14.192;2023-02-28T04:46:00;10.30;;;5.20;;
75456;SDS011;64036;48.266;14.192;2023-02-28T04:48:28;9.80;;;5.40;;
75456;SDS011;64036;48.266;14.192;2023-02-28T04:51:00;10.30;;;5.00;;
75456;SDS011;64036;48.266;14.192;2023-02-28T04:53:34;7.90;;;4.10;;
75456;SDS011;64036;48.266;14.192;2023-02-28T04:56:00;8.10;;;4.70;;
75456;SDS011;64036;48.266;14.192;2023-02-28T04:58:26;10.00;;;4.80;;
75456;SDS011;64036;48.266;14.192;2023-02-28T05:00:54;7.20;;;4.10;;
75456;SDS011;64036;48.266;14.192;2023-02-28T05:03:26;6.60;;;3.70;;
75456;SDS011;64036;48.266;14.192;2023-02-28T05:05:52;8.00;;;4.20;;
75456;SDS011;64036;48.266;14.192;2023-02-28T05:08:18;7.50;;;4.10;;
75456;SDS011;64036;48.266;14.192;2023-02-28T05:10:43;9.70;;;5.20;;
75456;SDS011;64036;48.266;14.192;2023-02-28T05:13:11;7.70;;;4.00;;
75456;SDS011;64036;48.266;14.192;2023-02-28T05:15:37;7.00;;;4.20;;
75456;SDS011;64036;48.266;14.192;2023-02-28T05:18:04;9.20;;;5.00;;
75456;SDS011;64036;48.266;14.192;2023-02-28T05:20:30;10.20;;;5.00;;
75456;SDS011;64036;48.266;14.192;2023-02-28T05:22:57;12.60;;;4.50;;
75456;SDS011;64036;48.266;14.192;2023-02-28T05:25:24;10.00;;;4.90;;
75456;SDS011;64036;48.266;14.192;2023-02-28T05:27:50;8.60;;;4.20;;
75456;SDS011;64036;48.266;14.192;2023-02-28T05:30:16;9.20;;;4.40;;
75456;SDS011;64036;48.266;14.192;2023-02-28T05:32:42;11.60;;;5.00;;
75456;SDS011;64036;48.266;14.192;2023-02-28T05:35:08;10.00;;;4.90;;
75456;SDS011;64036;48.266;14.192;2023-02-28T05:37:38;7.80;;;4.40;;
75456;SDS011;64036;48.266;14.192;2023-02-28T05:40:06;10.20;;;4.60;;
75456;SDS011;64036;48.266;14.192;2023-02-28T05:42:36;6.40;;;3.50;;
75456;SDS011;64036;48.266;14.192;2023-02-28T05:45:03;10.10;;;4.20;;
75456;SDS011;64036;48.266;14.192;2023-02-28T05:47:29;11.40;;;5.40;;
75456;SDS011;64036;48.266;14.192;2023-02-28T05:49:55;7.00;;;4.50;;
75456;SDS011;64036;48.266;14.192;2023-02-28T05:52:21;8.10;;;4.30;;
75456;SDS011;64036;48.266;14.192;2023-02-28T05:54:47;8.90;;;5.00;;
75456;SDS011;64036;48.266;14.192;2023-02-28T05:57:13;9.60;;;5.10;;
75456;SDS011;64036;48.266;14.192;2023-02-28T05:59:38;8.60;;;4.60;;
75456;SDS011;64036;48.266;14.192;2023-02-28T06:02:08;9.50;;;5.00;;
75456;SDS011;64036;48.266;14.192;2023-02-28T06:04:36;10.00;;;5.10;;
75456;SDS011;64036;48.266;14.192;2023-02-28T06:07:02;11.90;;;5.40;;
75456;SDS011;64036;48.266;14.192;2023-02-28T06:09:28;7.90;;;3.90;;
75456;SDS011;64036;48.266;14.192;2023-02-28T06:11:57;9.40;;;4.00;;
75456;SDS011;64036;48.266;14.192;2023-02-28T06:14:23;9.20;;;5.00;;
75456;SDS011;64036;48.266;14.192;2023-02-28T06:16:49;9.00;;;4.90;;
75456;SDS011;64036;48.266;14.192;2023-02-28T06:19:15;7.90;;;4.60;;
75456;SDS011;64036;48.266;14.192;2023-02-28T06:21:41;10.10;;;5.50;;
75456;SDS011;64036;48.266;14.192;2023-02-28T06:24:07;9.90;;;5.00;;
75456;SDS011;64036;48.266;14.192;2023-02-28T06:26:33;11.20;;;6.10;;
75456;SDS011;64036;48.266;14.192;2023-02-28T06:28:59;8.40;;;5.00;;
75456;SDS011;64036;48.266;14.192;2023-02-28T06:31:26;10.40;;;5.50;;
75456;SDS011;64036;48.266;14.192;2023-02-28T06:33:54;9.80;;;5.60;;
75456;SDS011;64036;48.266;14.192;2023-02-28T06:36:19;9.70;;;6.00;;
75456;SDS011;64036;48.266;14.192;2023-02-28T06:38:45;8.20;;;5.10;;
75456;SDS011;64036;48.266;14.192;2023-02-28T06:41:11;9.90;;;5.30;;
75456;SDS011;64036;48.266;14.192;2023-02-28T06:43:41;9.50;;;5.80;;
75456;SDS011;64036;48.266;14.192;2023-02-28T06:46:09;8.40;;;5.40;;
75456;SDS011;64036;48.266;14.192;2023-02-28T06:48:37;10.40;;;5.50;;
75456;SDS011;64036;48.266;14.192;2023-02-28T06:51:15;8.60;;;5.30;;
75456;SDS011;64036;48.266;14.192;2023-02-28T06:53:42;10.00;;;6.20;;
75456;SDS011;64036;48.266;14.192;2023-02-28T06:56:11;10.50;;;6.20;;
75456;SDS011;64036;48.266;14.192;2023-02-28T06:58:39;8.70;;;5.60;;
75456;SDS011;64036;48.266;14.192;2023-02-28T07:01:06;9.10;;;6.60;;
75456;SDS011;64036;48.266;14.192;2023-02-28T07:03:35;9.00;;;5.80;;
75456;SDS011;64036;48.266;14.192;2023-02-28T07:06:02;8.80;;;6.10;;
75456;SDS011;64036;48.266;14.192;2023-02-28T07:08:29;8.40;;;6.00;;
75456;SDS011;64036;48.266;14.192;2023-02-28T07:10:55;11.10;;;6.10;;
75456;SDS011;64036;48.266;14.192;2023-02-28T07:13:22;7.50;;;5.80;;
75456;SDS011;64036;48.266;14.192;2023-02-28T07:15:56;7.10;;;5.30;;
75456;SDS011;64036;48.266;14.192;2023-02-28T07:18:23;9.40;;;5.70;;
75456;SDS011;64036;48.266;14.192;2023-02-28T07:20:49;7.40;;;4.70;;
75456;SDS011;64036;48.266;14.192;2023-02-28T07:23:15;8.70;;;5.70;;
75456;SDS011;64036;48.266;14.192;2023-02-28T07:25:40;7.80;;;5.60;;
75456;SDS011;64036;48.266;14.192;2023-02-28T07:28:06;8.90;;;5.60;;
75456;SDS011;64036;48.266;14.192;2023-02-28T07:30:32;8.00;;;5.60;;
75456;SDS011;64036;48.266;14.192;2023-02-28T07:32:57;8.60;;;5.90;;
75456;SDS011;64036;48.266;14.192;2023-02-28T07:35:23;9.20;;;5.80;;
75456;SDS011;64036;48.266;14.192;2023-02-28T07:37:49;7.70;;;5.70;;
75456;SDS011;64036;48.266;14.192;2023-02-28T07:40:15;8.80;;;6.20;;
75456;SDS011;64036;48.266;14.192;2023-02-28T07:42:43;7.90;;;5.60;;
75456;SDS011;64036;48.266;14.192;2023-02-28T07:45:10;8.80;;;5.60;;
75456;SDS011;64036;48.266;14.192;2023-02-28T07:47:41;7.90;;;5.30;;
75456;SDS011;64036;48.266;14.192;2023-02-28T07:50:09;8.60;;;5.40;;
75456;SDS011;64036;48.266;14.192;2023-02-28T07:52:37;8.10;;;5.40;;
75456;SDS011;64036;48.266;14.192;2023-02-28T07:55:05;7.80;;;5.50;;
75456;SDS011;64036;48.266;14.192;2023-02-28T07:57:31;8.30;;;5.50;;
75456;SDS011;64036;48.266;14.192;2023-02-28T07:59:57;7.90;;;5.90;;
75456;SDS011;64036;48.266;14.192;2023-02-28T08:02:22;9.70;;;5.80;;
75456;SDS011;64036;48.266;14.192;2023-02-28T08:04:48;9.30;;;6.20;;
75456;SDS011;64036;48.266;14.192;2023-02-28T08:07:15;7.90;;;5.50;;
75456;SDS011;64036;48.266;14.192;2023-02-28T08:09:42;8.80;;;6.00;;
75456;SDS011;64036;48.266;14.192;2023-02-28T08:12:09;9.20;;;5.60;;
75456;SDS011;64036;48.266;14.192;2023-02-28T08:14:35;8.60;;;5.50;;
75456;SDS011;64036;48.266;14.192;2023-02-28T08:17:01;10.00;;;6.80;;
75456;SDS011;64036;48.266;14.192;2023-02-28T08:19:27;8.10;;;5.40;;
75456;SDS011;64036;48.266;14.192;2023-02-28T08:21:53;7.40;;;5.60;;
75456;SDS011;64036;48.266;14.192;2023-02-28T08:24:19;9.70;;;5.90;;
75456;SDS011;64036;48.266;14.192;2023-02-28T08:26:45;9.10;;;5.50;;
75456;SDS011;64036;48.266;14.192;2023-02-28T08:29:10;8.50;;;5.60;;
75456;SDS011;64036;48.266;14.192;2023-02-28T08:31:36;7.40;;;5.20;;
75456;SDS011;64036;48.266;14.192;2023-02-28T08:34:06;9.00;;;5.20;;
75456;SDS011;64036;48.266;14.192;2023-02-28T08:36:37;7.20;;;4.90;;
75456;SDS011;64036;48.266;14.192;2023-02-28T08:39:03;7.70;;;5.70;;
75456;SDS011;64036;48.266;14.192;2023-02-28T08:41:30;8.30;;;5.00;;
75456;SDS011;64036;48.266;14.192;2023-02-28T08:43:56;9.80;;;6.00;;
75456;SDS011;64036;48.266;14.192;2023-02-28T08:46:24;7.80;;;5.30;;
75456;SDS011;64036;48.266;14.192;2023-02-28T08:48:54;9.10;;;6.10;;
75456;SDS011;64036;48.266;14.192;2023-02-28T08:51:21;7.40;;;5.50;;
75456;SDS011;64036;48.266;14.192;2023-02-28T08:53:58;9.60;;;6.00;;
75456;SDS011;64036;48.266;14.192;2023-02-28T08:56:26;9.10;;;6.40;;
75456;SDS011;64036;48.266;14.192;2023-02-28T08:58:54;8.10;;;5.10;;
75456;SDS011;64036;48.266;14.192;2023-02-28T09:01:23;8.60;;;5.30;;
75456;SDS011;64036;48.266;14.192;2023-02-28T09:03:52;9.10;;;6.00;;
75456;SDS011;64036;48.266;14.192;2023-02-28T09:06:20;9.70;;;6.10;;
75456;SDS011;64036;48.266;14.192;2023-02-28T09:08:46;8.70;;;5.40;;
75456;SDS011;64036;48.266;14.192;2023-02-28T09:11:12;7.70;;;5.60;;
75456;SDS011;64036;48.266;14.192;2023-02-28T09:13:38;9.40;;;6.10;;
75456;SDS011;64036;48.266;14.192;2023-02-28T09:16:07;8.60;;;6.00;;
75456;SDS011;64036;48.266;14.192;2023-02-28T09:18:36;8.60;;;6.00;;
75456;SDS011;64036;48.266;14.192;2023-02-28T09:21:04;7.40;;;4.70;;
75456;SDS011;64036;48.266;14.192;2023-02-28T09:23:34;11.00;;;6.00;;
75456;SDS011;64036;48.266;14.192;2023-02-28T09:26:00;8.20;;;5.90;;
75456;SDS011;64036;48.266;14.192;2023-02-28T09:28:25;9.60;;;5.40;;
75456;SDS011;64036;48.266;14.192;2023-02-28T09:30:53;7.60;;;5.70;;
75456;SDS011;64036;48.266;14.192;2023-02-28T09:33:20;10.80;;;5.70;;
75456;SDS011;64036;48.266;14.192;2023-02-28T09:35:48;7.20;;;5.60;;
75456;SDS011;64036;48.266;14.192;2023-02-28T09:38:14;8.70;;;6.00;;
75456;SDS011;64036;48.266;14.192;2023-02-28T09:40:50;8.60;;;6.00;;
75456;SDS011;64036;48.266;14.192;2023-02-28T09:43:20;9.30;;;5.80;;
75456;SDS011;64036;48.266;14.192;2023-02-28T09:45:55;9.20;;;6.70;;
75456;SDS011;64036;48.266;14.192;2023-02-28T09:48:32;9.00;;;5.60;;
75456;SDS011;64036;48.266;14.192;2023-02-28T09:53:57;9.70;;;6.20;;
75456;SDS011;64036;48.266;14.192;2023-02-28T10:07:56;9.00;;;5.70;;
75456;SDS011;64036;48.266;14.192;2023-02-28T10:10:40;9.90;;;5.50;;
75456;SDS011;64036;48.266;14.192;2023-02-28T10:15:58;8.00;;;5.20;;
75456;SDS011;64036;48.266;14.192;2023-02-28T10:24:51;8.40;;;5.10;;
75456;SDS011;64036;48.266;14.192;2023-02-28T10:27:27;9.10;;;6.40;;
75456;SDS011;64036;48.266;14.192;2023-02-28T10:29:57;7.50;;;5.00;;
75456;SDS011;64036;48.266;14.192;2023-02-28T10:32:30;9.80;;;5.70;;
75456;SDS011;64036;48.266;14.192;2023-02-28T10:35:14;10.70;;;6.20;;
75456;SDS011;64036;48.266;14.192;2023-02-28T10:37:45;9.30;;;5.70;;
75456;SDS011;64036;48.266;14.192;2023-02-28T10:42:56;8.70;;;5.50;;
75456;SDS011;64036;48.266;14.192;2023-02-28T10:45:29;11.80;;;6.20;;
75456;SDS011;64036;48.266;14.192;2023-02-28T10:48:03;7.10;;;4.90;;
75456;SDS011;64036;48.266;14.192;2023-02-28T10:50:53;9.70;;;5.60;;
75456;SDS011;64036;48.266;14.192;2023-02-28T10:58:42;10.00;;;5.40;;
75456;SDS011;64036;48.266;14.192;2023-02-28T11:01:45;9.00;;;5.50;;
75456;SDS011;64036;48.266;14.192;2023-02-28T11:06:45;9.30;;;4.60;;
75456;SDS011;64036;48.266;14.192;2023-02-28T11:09:28;8.80;;;5.60;;
75456;SDS011;64036;48.266;14.192;2023-02-28T11:11:56;10.10;;;5.30;;
75456;SDS011;64036;48.266;14.192;2023-02-28T11:14:26;9.40;;;5.20;;
75456;SDS011;64036;48.266;14.192;2023-02-28T11:19:39;7.00;;;4.60;;
75456;SDS011;64036;48.266;14.192;2023-02-28T11:22:09;11.00;;;5.50;;
75456;SDS011;64036;48.266;14.192;2023-02-28T11:24:45;10.40;;;6.20;;
75456;SDS011;64036;48.266;14.192;2023-02-28T11:29:57;7.50;;;4.50;;
75456;SDS011;64036;48.266;14.192;2023-02-28T11:32:26;8.30;;;4.50;;
75456;SDS011;64036;48.266;14.192;2023-02-28T11:35:01;9.60;;;5.50;;
75456;SDS011;64036;48.266;14.192;2023-02-28T11:37:31;9.10;;;5.20;;
75456;SDS011;64036;48.266;14.192;2023-02-28T11:39:57;9.50;;;5.90;;
75456;SDS011;64036;48.266;14.192;2023-02-28T11:42:32;9.50;;;5.50;;
75456;SDS011;64036;48.266;14.192;2023-02-28T11:47:48;10.50;;;5.60;;
75456;SDS011;64036;48.266;14.192;2023-02-28T11:53:35;9.80;;;5.80;;
75456;SDS011;64036;48.266;14.192;2023-02-28T11:59:38;9.20;;;5.60;;
75456;SDS011;64036;48.266;14.192;2023-02-28T12:05:44;8.60;;;5.70;;
75456;SDS011;64036;48.266;14.192;2023-02-28T12:14:25;9.70;;;5.20;;
75456;SDS011;64036;48.266;14.192;2023-02-28T12:25:30;9.30;;;5.90;;
75456;SDS011;64036;48.266;14.192;2023-02-28T12:28:09;11.90;;;6.30;;
75456;SDS011;64036;48.266;14.192;2023-02-28T12:31:26;10.30;;;6.20;;
75456;SDS011;64036;48.266;14.192;2023-02-28T12:33:35;9.10;;;5.40;;
75456;SDS011;64036;48.266;14.192;2023-02-28T12:36:09;8.80;;;5.50;;
75456;SDS011;64036;48.266;14.192;2023-02-28T12:38:47;8.30;;;5.80;;
75456;SDS011;64036;48.266;14.192;2023-02-28T12:41:18;10.70;;;6.40;;
75456;SDS011;64036;48.266;14.192;2023-02-28T12:43:52;12.60;;;6.80;;
75456;SDS011;64036;48.266;14.192;2023-02-28T12:46:29;9.20;;;5.60;;
75456;SDS011;64036;48.266;14.192;2023-02-28T12:49:04;8.70;;;5.40;;
75456;SDS011;64036;48.266;14.192;2023-02-28T12:51:34;8.80;;;5.80;;
75456;SDS011;64036;48.266;14.192;2023-02-28T12:54:19;10.90;;;6.40;;
75456;SDS011;64036;48.266;14.192;2023-02-28T12:59:27;10.00;;;6.10;;
75456;SDS011;64036;48.266;14.192;2023-02-28T13:09:31;11.70;;;6.30;;
75456;SDS011;64036;48.266;14.192;2023-02-28T13:11:47;7.90;;;4.80;;
75456;SDS011;64036;48.266;14.192;2023-02-28T13:19:46;9.00;;;5.70;;
75456;SDS011;64036;48.266;14.192;2023-02-28T13:24:52;9.70;;;5.60;;
75456;SDS011;64036;48.266;14.192;2023-02-28T13:27:33;9.50;;;6.10;;
75456;SDS011;64036;48.266;14.192;2023-02-28T13:38:51;10.70;;;6.50;;
75456;SDS011;64036;48.266;14.192;2023-02-28T13:46:36;11.10;;;5.70;;
75456;SDS011;64036;48.266;14.192;2023-02-28T13:51:53;10.40;;;5.70;;
75456;SDS011;64036;48.266;14.192;2023-02-28T14:06:31;8.70;;;6.00;;
75456;SDS011;64036;48.266;14.192;2023-02-28T14:15:55;6.90;;;4.10;;
75456;SDS011;64036;48.266;14.192;2023-02-28T14:26:06;8.90;;;5.30;;
75456;SDS011;64036;48.266;14.192;2023-02-28T14:29:17;7.70;;;5.30;;
75456;SDS011;64036;48.266;14.192;2023-02-28T14:49:50;12.20;;;6.50;;
75456;SDS011;64036;48.266;14.192;2023-02-28T14:52:24;11.10;;;7.20;;
75456;SDS011;64036;48.266;14.192;2023-02-28T14:55:13;9.20;;;5.40;;
75456;SDS011;64036;48.266;14.192;2023-02-28T14:57:54;9.40;;;5.60;;
75456;SDS011;64036;48.266;14.192;2023-02-28T15:00:31;9.60;;;6.20;;
75456;SDS011;64036;48.266;14.192;2023-02-28T15:06:26;8.40;;;5.40;;
75456;SDS011;64036;48.266;14.192;2023-02-28T15:09:18;10.70;;;6.10;;
75456;SDS011;64036;48.266;14.192;2023-02-28T15:11:49;9.50;;;6.10;;
75456;SDS011;64036;48.266;14.192;2023-02-28T15:14:21;9.50;;;6.10;;
75456;SDS011;64036;48.266;14.192;2023-02-28T15:16:57;11.00;;;6.40;;
75456;SDS011;64036;48.266;14.192;2023-02-28T15:19:31;10.40;;;6.30;;
75456;SDS011;64036;48.266;14.192;2023-02-28T15:22:10;10.20;;;6.70;;
75456;SDS011;64036;48.266;14.192;2023-02-28T15:24:47;9.90;;;6.20;;
75456;SDS011;64036;48.266;14.192;2023-02-28T15:27:26;10.70;;;6.50;;
75456;SDS011;64036;48.266;14.192;2023-02-28T15:29:59;12.80;;;8.00;;
75456;SDS011;64036;48.266;14.192;2023-02-28T15:34:57;13.30;;;7.50;;
75456;SDS011;64036;48.266;14.192;2023-02-28T15:37:48;12.30;;;7.30;;
75456;SDS011;64036;48.266;14.192;2023-02-28T15:40:38;12.00;;;7.50;;
75456;SDS011;64036;48.266;14.192;2023-02-28T15:43:18;11.30;;;6.80;;
75456;SDS011;64036;48.266;14.192;2023-02-28T15:45:55;10.50;;;6.80;;
75456;SDS011;64036;48.266;14.192;2023-02-28T15:51:30;9.70;;;6.60;;
75456;SDS011;64036;48.266;14.192;2023-02-28T15:54:00;11.20;;;7.00;;
75456;SDS011;64036;48.266;14.192;2023-02-28T15:56:30;13.00;;;6.90;;
75456;SDS011;64036;48.266;14.192;2023-02-28T15:59:00;11.50;;;6.60;;
75456;SDS011;64036;48.266;14.192;2023-02-28T16:01:30;12.00;;;7.10;;
75456;SDS011;64036;48.266;14.192;2023-02-28T16:04:11;11.40;;;6.40;;
75456;SDS011;64036;48.266;14.192;2023-02-28T16:07:04;12.30;;;6.50;;
75456;SDS011;64036;48.266;14.192;2023-02-28T16:09:34;11.20;;;6.00;;
75456;SDS011;64036;48.266;14.192;2023-02-28T16:12:11;11.80;;;6.70;;
75456;SDS011;64036;48.266;14.192;2023-02-28T16:14:53;12.90;;;7.90;;
75456;SDS011;64036;48.266;14.192;2023-02-28T16:17:45;14.70;;;8.00;;
75456;SDS011;64036;48.266;14.192;2023-02-28T16:22:53;12.20;;;7.60;;
75456;SDS011;64036;48.266;14.192;2023-02-28T16:25:56;12.80;;;7.80;;
75456;SDS011;64036;48.266;14.192;2023-02-28T16:28:37;12.10;;;7.30;;
75456;SDS011;64036;48.266;14.192;2023-02-28T16:38:03;14.90;;;7.20;;
75456;SDS011;64036;48.266;14.192;2023-02-28T16:41:36;14.50;;;7.80;;
75456;SDS011;64036;48.266;14.192;2023-02-28T16:44:38;11.20;;;7.10;;
75456;SDS011;64036;48.266;14.192;2023-02-28T17:02:07;13.20;;;7.60;;
75456;SDS011;64036;48.266;14.192;2023-02-28T17:05:20;13.00;;;6.40;;
75456;SDS011;64036;48.266;14.192;2023-02-28T17:07:47;13.20;;;7.40;;
75456;SDS011;64036;48.266;14.192;2023-02-28T17:10:25;14.80;;;8.00;;
75456;SDS011;64036;48.266;14.192;2023-02-28T17:12:58;11.80;;;6.60;;
75456;SDS011;64036;48.266;14.192;2023-02-28T17:15:48;11.20;;;7.20;;
75456;SDS011;64036;48.266;14.192;2023-02-28T17:18:25;11.20;;;6.60;;
75456;SDS011;64036;48.266;14.192;2023-02-28T17:20:51;11.90;;;7.70;;
75456;SDS011;64036;48.266;14.192;2023-02-28T17:23:24;12.50;;;7.30;;
75456;SDS011;64036;48.266;14.192;2023-02-28T17:26:00;12.50;;;7.10;;
75456;SDS011;64036;48.266;14.192;2023-02-28T17:28:37;12.20;;;6.60;;
75456;SDS011;64036;48.266;14.192;2023-02-28T17:31:05;11.30;;;7.10;;
75456;SDS011;64036;48.266;14.192;2023-02-28T17:33:33;13.50;;;7.80;;
75456;SDS011;64036;48.266;14.192;2023-02-28T17:36:25;14.30;;;7.30;;
75456;SDS011;64036;48.266;14.192;2023-02-28T17:38:54;12.30;;;6.40;;
75456;SDS011;64036;48.266;14.192;2023-02-28T17:41:41;13.30;;;7.70;;
75456;SDS011;64036;48.266;14.192;2023-02-28T17:44:08;15.60;;;8.00;;
75456;SDS011;64036;48.266;14.192;2023-02-28T17:49:19;11.90;;;6.60;;
75456;SDS011;64036;48.266;14.192;2023-02-28T17:52:15;11.90;;;7.00;;
75456;SDS011;64036;48.266;14.192;2023-02-28T18:00:57;10.20;;;6.80;;
75456;SDS011;64036;48.266;14.192;2023-02-28T18:03:30;13.20;;;7.50;;
75456;SDS011;64036;48.266;14.192;2023-02-28T18:05:58;10.20;;;6.50;;
75456;SDS011;64036;48.266;14.192;2023-02-28T18:08:25;14.00;;;7.70;;
75456;SDS011;64036;48.266;14.192;2023-02-28T18:11:19;13.70;;;8.10;;
75456;SDS011;64036;48.266;14.192;2023-02-28T18:13:49;12.30;;;7.60;;
75456;SDS011;64036;48.266;14.192;2023-02-28T18:16:25;12.00;;;7.40;;
75456;SDS011;64036;48.266;14.192;2023-02-28T18:18:56;10.50;;;6.00;;
75456;SDS011;64036;48.266;14.192;2023-02-28T18:21:22;11.90;;;6.70;;
75456;SDS011;64036;48.266;14.192;2023-02-28T18:23:48;11.50;;;7.10;;
75456;SDS011;64036;48.266;14.192;2023-02-28T18:26:19;10.90;;;6.70;;
75456;SDS011;64036;48.266;14.192;2023-02-28T18:28:48;12.40;;;6.80;;
75456;SDS011;64036;48.266;14.192;2023-02-28T18:31:16;12.40;;;7.00;;
75456;SDS011;64036;48.266;14.192;2023-02-28T18:33:47;11.20;;;6.30;;
75456;SDS011;64036;48.266;14.192;2023-02-28T18:36:19;10.00;;;5.60;;
75456;SDS011;64036;48.266;14.192;2023-02-28T18:38:46;11.20;;;7.10;;
75456;SDS011;64036;48.266;14.192;2023-02-28T18:41:20;11.50;;;5.90;;